sensor_id;sensor_type;location;lat;lon;timestamp;temperature;humidity
16517;DHT22;8371;52.272;9.746;2022-11-15T00:01:49;9.20;81.20
16517;DHT22;8371;52.272;9.746;2022-11-15T00:04:14;9.20;81.10
16517;DHT22;8371;52.272;9.746;2022-11-15T00:06:40;9.30;81.20
16517;DHT22;8371;52.272;9.746;2022-11-15T00:09:06;9.30;81.20
16517;DHT22;8371;52.272;9.746;2022-11-15T00:11:32;9.30;81.30
16517;DHT22;8371;52.272;9.746;2022-11-15T00:13:57;9.40;81.40
16517;DHT22;8371;52.272;9.746;2022-11-15T00:16:24;9.30;81.50
16517;DHT22;8371;52.272;9.746;2022-11-15T00:18:50;9.40;81.50
16517;DHT22;8371;52.272;9.746;2022-11-15T00:21:17;9.50;81.60
16517;DHT22;8371;52.272;9.746;2022-11-15T00:23:43;9.50;81.60
16517;DHT22;8371;52.272;9.746;2022-11-15T00:26:13;9.60;81.70
16517;DHT22;8371;52.272;9.746;2022-11-15T00:28:40;9.60;81.70
16517;DHT22;8371;52.272;9.746;2022-11-15T00:31:09;9.60;81.60
16517;DHT22;8371;52.272;9.746;2022-11-15T00:33:35;9.70;81.80
16517;DHT22;8371;52.272;9.746;2022-11-15T00:36:06;9.70;81.80
16517;DHT22;8371;52.272;9.746;2022-11-15T00:38:33;9.70;81.80
16517;DHT22;8371;52.272;9.746;2022-11-15T00:40:59;9.80;81.90
16517;DHT22;8371;52.272;9.746;2022-11-15T00:43:25;9.90;81.90
16517;DHT22;8371;52.272;9.746;2022-11-15T00:45:51;9.90;82.10
16517;DHT22;8371;52.272;9.746;2022-11-15T00:48:17;10.00;82.30
16517;DHT22;8371;52.272;9.746;2022-11-15T00:50:42;10.00;82.40
16517;DHT22;8371;52.272;9.746;2022-11-15T00:53:08;10.10;82.50
16517;DHT22;8371;52.272;9.746;2022-11-15T00:55:34;10.20;82.60
16517;DHT22;8371;52.272;9.746;2022-11-15T00:58:00;10.30;82.60
16517;DHT22;8371;52.272;9.746;2022-11-15T01:00:26;10.40;82.60
16517;DHT22;8371;52.272;9.746;2022-11-15T01:02:51;10.50;82.60
16517;DHT22;8371;52.272;9.746;2022-11-15T01:05:17;10.50;82.30
16517;DHT22;8371;52.272;9.746;2022-11-15T01:07:43;10.60;82.10
16517;DHT22;8371;52.272;9.746;2022-11-15T01:10:09;10.70;81.80
16517;DHT22;8371;52.272;9.746;2022-11-15T01:12:34;10.70;81.50
16517;DHT22;8371;52.272;9.746;2022-11-15T01:15:00;10.70;81.10
16517;DHT22;8371;52.272;9.746;2022-11-15T01:17:26;10.70;80.90
16517;DHT22;8371;52.272;9.746;2022-11-15T01:19:52;10.70;80.60
16517;DHT22;8371;52.272;9.746;2022-11-15T01:22:18;10.70;80.70
16517;DHT22;8371;52.272;9.746;2022-11-15T01:24:43;10.70;80.80
16517;DHT22;8371;52.272;9.746;2022-11-15T01:27:09;10.60;80.70
16517;DHT22;8371;52.272;9.746;2022-11-15T01:29:35;10.60;80.80
16517;DHT22;8371;52.272;9.746;2022-11-15T01:32:01;10.60;81.00
16517;DHT22;8371;52.272;9.746;2022-11-15T01:34:27;10.60;81.00
16517;DHT22;8371;52.272;9.746;2022-11-15T01:36:52;10.60;81.00
16517;DHT22;8371;52.272;9.746;2022-11-15T01:39:18;10.60;81.10
16517;DHT22;8371;52.272;9.746;2022-11-15T01:41:44;10.60;80.80
16517;DHT22;8371;52.272;9.746;2022-11-15T01:47:20;10.50;80.40
16517;DHT22;8371;52.272;9.746;2022-11-15T01:50:04;10.40;80.10
16517;DHT22;8371;52.272;9.746;2022-11-15T01:52:33;10.40;80.10
16517;DHT22;8371;52.272;9.746;2022-11-15T01:55:06;10.30;80.10
16517;DHT22;8371;52.272;9.746;2022-11-15T01:57:32;10.30;80.20
16517;DHT22;8371;52.272;9.746;2022-11-15T02:00:00;10.20;80.30
16517;DHT22;8371;52.272;9.746;2022-11-15T02:02:25;10.10;80.50
16517;DHT22;8371;52.272;9.746;2022-11-15T02:04:51;10.10;80.80
16517;DHT22;8371;52.272;9.746;2022-11-15T02:07:19;10.10;81.90
16517;DHT22;8371;52.272;9.746;2022-11-15T02:09:45;10.10;81.30
16517;DHT22;8371;52.272;9.746;2022-11-15T02:12:14;10.10;81.50
16517;DHT22;8371;52.272;9.746;2022-11-15T02:14:42;10.20;81.70
16517;DHT22;8371;52.272;9.746;2022-11-15T02:20:25;10.30;82.20
16517;DHT22;8371;52.272;9.746;2022-11-15T02:23:22;10.40;82.40
16517;DHT22;8371;52.272;9.746;2022-11-15T02:28:39;10.50;82.90
16517;DHT22;8371;52.272;9.746;2022-11-15T02:36:21;10.70;83.60
16517;DHT22;8371;52.272;9.746;2022-11-15T02:38:56;10.80;83.60
16517;DHT22;8371;52.272;9.746;2022-11-15T02:41:24;10.90;83.70
16517;DHT22;8371;52.272;9.746;2022-11-15T02:44:39;11.10;83.90
16517;DHT22;8371;52.272;9.746;2022-11-15T02:46:39;11.20;83.80
16517;DHT22;8371;52.272;9.746;2022-11-15T02:49:25;11.30;83.90
16517;DHT22;8371;52.272;9.746;2022-11-15T02:51:54;11.40;83.80
16517;DHT22;8371;52.272;9.746;2022-11-15T02:54:30;11.50;83.80
16517;DHT22;8371;52.272;9.746;2022-11-15T02:56:53;11.60;83.80
16517;DHT22;8371;52.272;9.746;2022-11-15T02:59:40;11.70;83.80
16517;DHT22;8371;52.272;9.746;2022-11-15T03:08:12;12.00;83.50
16517;DHT22;8371;52.272;9.746;2022-11-15T03:10:56;12.10;83.50
16517;DHT22;8371;52.272;9.746;2022-11-15T03:16:03;12.20;83.30
16517;DHT22;8371;52.272;9.746;2022-11-15T03:18:35;12.30;83.20
16517;DHT22;8371;52.272;9.746;2022-11-15T03:21:04;12.40;83.00
16517;DHT22;8371;52.272;9.746;2022-11-15T03:23:31;12.50;82.80
16517;DHT22;8371;52.272;9.746;2022-11-15T03:25:59;12.50;82.70
16517;DHT22;8371;52.272;9.746;2022-11-15T03:28:31;12.60;82.60
16517;DHT22;8371;52.272;9.746;2022-11-15T03:30:56;12.60;82.50
16517;DHT22;8371;52.272;9.746;2022-11-15T03:33:22;12.70;82.30
16517;DHT22;8371;52.272;9.746;2022-11-15T03:35:48;12.70;82.30
16517;DHT22;8371;52.272;9.746;2022-11-15T03:38:23;12.80;82.10
16517;DHT22;8371;52.272;9.746;2022-11-15T03:40:58;12.80;82.00
16517;DHT22;8371;52.272;9.746;2022-11-15T03:43:47;12.90;81.80
16517;DHT22;8371;52.272;9.746;2022-11-15T03:46:14;12.80;81.60
16517;DHT22;8371;52.272;9.746;2022-11-15T03:48:45;12.90;81.60
16517;DHT22;8371;52.272;9.746;2022-11-15T03:51:12;12.90;81.90
16517;DHT22;8371;52.272;9.746;2022-11-15T03:53:38;12.90;81.40
16517;DHT22;8371;52.272;9.746;2022-11-15T03:56:04;12.90;81.30
16517;DHT22;8371;52.272;9.746;2022-11-15T03:58:29;12.90;81.20
16517;DHT22;8371;52.272;9.746;2022-11-15T04:00:55;12.90;81.10
16517;DHT22;8371;52.272;9.746;2022-11-15T04:03:21;12.90;81.10
16517;DHT22;8371;52.272;9.746;2022-11-15T04:05:46;12.90;81.10
16517;DHT22;8371;52.272;9.746;2022-11-15T04:08:12;12.90;81.00
16517;DHT22;8371;52.272;9.746;2022-11-15T04:10:38;12.90;81.00
16517;DHT22;8371;52.272;9.746;2022-11-15T04:13:03;12.90;81.10
16517;DHT22;8371;52.272;9.746;2022-11-15T04:15:29;12.90;81.20
16517;DHT22;8371;52.272;9.746;2022-11-15T04:17:56;12.90;81.30
16517;DHT22;8371;52.272;9.746;2022-11-15T04:20:28;12.90;81.10
16517;DHT22;8371;52.272;9.746;2022-11-15T04:23:15;12.90;81.00
16517;DHT22;8371;52.272;9.746;2022-11-15T04:26:02;12.90;80.80
16517;DHT22;8371;52.272;9.746;2022-11-15T04:28:28;12.90;80.80
16517;DHT22;8371;52.272;9.746;2022-11-15T04:30:54;12.90;80.70
16517;DHT22;8371;52.272;9.746;2022-11-15T04:33:21;12.90;80.70
16517;DHT22;8371;52.272;9.746;2022-11-15T04:35:47;12.90;80.90
16517;DHT22;8371;52.272;9.746;2022-11-15T04:38:19;12.90;81.00
16517;DHT22;8371;52.272;9.746;2022-11-15T04:40:47;12.90;81.00
16517;DHT22;8371;52.272;9.746;2022-11-15T04:43:13;13.00;81.00
16517;DHT22;8371;52.272;9.746;2022-11-15T04:45:38;13.00;81.00
16517;DHT22;8371;52.272;9.746;2022-11-15T04:48:04;13.00;81.00
16517;DHT22;8371;52.272;9.746;2022-11-15T04:50:30;13.00;80.90
16517;DHT22;8371;52.272;9.746;2022-11-15T04:52:56;13.00;80.90
16517;DHT22;8371;52.272;9.746;2022-11-15T04:55:21;13.00;80.90
16517;DHT22;8371;52.272;9.746;2022-11-15T04:57:47;13.10;80.90
16517;DHT22;8371;52.272;9.746;2022-11-15T05:00:15;13.10;80.80
16517;DHT22;8371;52.272;9.746;2022-11-15T05:02:41;13.10;80.80
16517;DHT22;8371;52.272;9.746;2022-11-15T05:05:25;13.10;80.70
16517;DHT22;8371;52.272;9.746;2022-11-15T05:07:51;13.20;80.60
16517;DHT22;8371;52.272;9.746;2022-11-15T05:10:17;13.20;80.50
16517;DHT22;8371;52.272;9.746;2022-11-15T05:12:42;13.20;80.40
16517;DHT22;8371;52.272;9.746;2022-11-15T05:15:09;13.20;80.30
16517;DHT22;8371;52.272;9.746;2022-11-15T05:17:34;13.20;80.10
16517;DHT22;8371;52.272;9.746;2022-11-15T05:20:00;13.20;80.10
16517;DHT22;8371;52.272;9.746;2022-11-15T05:22:26;13.20;79.90
16517;DHT22;8371;52.272;9.746;2022-11-15T05:24:52;13.10;79.80
16517;DHT22;8371;52.272;9.746;2022-11-15T05:27:18;13.10;79.70
16517;DHT22;8371;52.272;9.746;2022-11-15T05:29:44;13.00;79.50
16517;DHT22;8371;52.272;9.746;2022-11-15T05:32:11;13.00;79.50
16517;DHT22;8371;52.272;9.746;2022-11-15T05:34:38;13.00;79.50
16517;DHT22;8371;52.272;9.746;2022-11-15T05:37:04;12.90;79.50
16517;DHT22;8371;52.272;9.746;2022-11-15T05:39:30;12.90;79.60
16517;DHT22;8371;52.272;9.746;2022-11-15T05:42:02;12.90;79.70
16517;DHT22;8371;52.272;9.746;2022-11-15T05:44:28;12.80;79.70
16517;DHT22;8371;52.272;9.746;2022-11-15T05:46:55;12.80;79.70
16517;DHT22;8371;52.272;9.746;2022-11-15T05:49:24;12.80;79.80
16517;DHT22;8371;52.272;9.746;2022-11-15T05:51:51;12.80;79.80
16517;DHT22;8371;52.272;9.746;2022-11-15T05:54:19;12.70;79.80
16517;DHT22;8371;52.272;9.746;2022-11-15T05:56:45;12.70;79.80
16517;DHT22;8371;52.272;9.746;2022-11-15T05:59:11;12.60;79.70
16517;DHT22;8371;52.272;9.746;2022-11-15T06:01:37;12.60;79.80
16517;DHT22;8371;52.272;9.746;2022-11-15T06:04:04;12.60;79.80
16517;DHT22;8371;52.272;9.746;2022-11-15T06:06:30;12.60;79.80
16517;DHT22;8371;52.272;9.746;2022-11-15T06:08:55;12.50;79.80
16517;DHT22;8371;52.272;9.746;2022-11-15T06:11:21;12.50;79.90
16517;DHT22;8371;52.272;9.746;2022-11-15T06:13:47;12.50;79.90
16517;DHT22;8371;52.272;9.746;2022-11-15T06:16:12;12.50;80.00
16517;DHT22;8371;52.272;9.746;2022-11-15T06:18:38;12.40;79.90
16517;DHT22;8371;52.272;9.746;2022-11-15T06:21:05;12.50;79.80
16517;DHT22;8371;52.272;9.746;2022-11-15T06:23:32;12.40;79.50
16517;DHT22;8371;52.272;9.746;2022-11-15T06:25:59;12.30;79.30
16517;DHT22;8371;52.272;9.746;2022-11-15T06:28:29;12.30;79.20
16517;DHT22;8371;52.272;9.746;2022-11-15T06:30:55;12.20;79.10
16517;DHT22;8371;52.272;9.746;2022-11-15T06:33:21;12.10;79.10
16517;DHT22;8371;52.272;9.746;2022-11-15T06:35:46;12.10;79.20
16517;DHT22;8371;52.272;9.746;2022-11-15T06:38:12;12.00;79.20
16517;DHT22;8371;52.272;9.746;2022-11-15T06:40:38;11.90;79.30
16517;DHT22;8371;52.272;9.746;2022-11-15T06:43:05;11.90;79.40
16517;DHT22;8371;52.272;9.746;2022-11-15T06:45:31;11.80;79.40
16517;DHT22;8371;52.272;9.746;2022-11-15T06:47:58;11.70;79.40
16517;DHT22;8371;52.272;9.746;2022-11-15T06:50:24;11.70;79.50
16517;DHT22;8371;52.272;9.746;2022-11-15T06:52:50;11.60;79.60
16517;DHT22;8371;52.272;9.746;2022-11-15T06:55:16;11.60;79.70
16517;DHT22;8371;52.272;9.746;2022-11-15T06:57:48;11.50;79.80
16517;DHT22;8371;52.272;9.746;2022-11-15T07:00:16;11.50;79.90
16517;DHT22;8371;52.272;9.746;2022-11-15T07:02:42;11.40;80.10
16517;DHT22;8371;52.272;9.746;2022-11-15T07:05:08;11.40;80.30
16517;DHT22;8371;52.272;9.746;2022-11-15T07:07:34;11.40;80.40
16517;DHT22;8371;52.272;9.746;2022-11-15T07:09:59;11.40;80.70
16517;DHT22;8371;52.272;9.746;2022-11-15T07:12:25;11.40;80.80
16517;DHT22;8371;52.272;9.746;2022-11-15T07:14:51;11.40;80.90
16517;DHT22;8371;52.272;9.746;2022-11-15T07:17:17;11.40;81.00
16517;DHT22;8371;52.272;9.746;2022-11-15T07:19:42;11.40;81.00
16517;DHT22;8371;52.272;9.746;2022-11-15T07:22:08;11.40;81.10
16517;DHT22;8371;52.272;9.746;2022-11-15T07:24:33;11.40;81.10
16517;DHT22;8371;52.272;9.746;2022-11-15T07:26:59;11.50;81.20
16517;DHT22;8371;52.272;9.746;2022-11-15T07:29:25;11.50;81.20
16517;DHT22;8371;52.272;9.746;2022-11-15T07:31:51;11.50;81.30
16517;DHT22;8371;52.272;9.746;2022-11-15T07:34:16;11.50;81.30
16517;DHT22;8371;52.272;9.746;2022-11-15T07:36:42;11.50;81.30
16517;DHT22;8371;52.272;9.746;2022-11-15T07:39:08;11.50;81.30
16517;DHT22;8371;52.272;9.746;2022-11-15T07:41:33;11.60;81.30
16517;DHT22;8371;52.272;9.746;2022-11-15T07:43:59;11.60;81.20
16517;DHT22;8371;52.272;9.746;2022-11-15T07:46:25;11.60;81.10
16517;DHT22;8371;52.272;9.746;2022-11-15T07:48:51;11.60;81.10
16517;DHT22;8371;52.272;9.746;2022-11-15T07:51:17;11.60;81.00
16517;DHT22;8371;52.272;9.746;2022-11-15T07:53:43;11.60;81.00
16517;DHT22;8371;52.272;9.746;2022-11-15T07:56:09;11.60;80.80
16517;DHT22;8371;52.272;9.746;2022-11-15T07:58:35;11.60;80.90
16517;DHT22;8371;52.272;9.746;2022-11-15T08:01:09;11.60;81.00
16517;DHT22;8371;52.272;9.746;2022-11-15T08:03:36;11.60;81.10
16517;DHT22;8371;52.272;9.746;2022-11-15T08:06:02;11.60;81.10
16517;DHT22;8371;52.272;9.746;2022-11-15T08:08:28;11.60;81.10
16517;DHT22;8371;52.272;9.746;2022-11-15T08:10:54;11.60;81.10
16517;DHT22;8371;52.272;9.746;2022-11-15T08:13:19;11.70;81.20
16517;DHT22;8371;52.272;9.746;2022-11-15T08:15:46;11.70;81.30
16517;DHT22;8371;52.272;9.746;2022-11-15T08:18:14;11.70;81.50
16517;DHT22;8371;52.272;9.746;2022-11-15T08:20:40;11.70;81.60
16517;DHT22;8371;52.272;9.746;2022-11-15T08:23:07;11.80;81.80
16517;DHT22;8371;52.272;9.746;2022-11-15T08:25:34;11.80;81.90
16517;DHT22;8371;52.272;9.746;2022-11-15T08:28:02;11.90;82.00
16517;DHT22;8371;52.272;9.746;2022-11-15T08:30:28;11.90;82.00
16517;DHT22;8371;52.272;9.746;2022-11-15T08:32:57;12.00;82.10
16517;DHT22;8371;52.272;9.746;2022-11-15T08:35:23;12.10;82.10
16517;DHT22;8371;52.272;9.746;2022-11-15T08:37:49;12.20;82.20
16517;DHT22;8371;52.272;9.746;2022-11-15T08:42:54;12.30;82.30
16517;DHT22;8371;52.272;9.746;2022-11-15T08:45:20;12.40;82.40
16517;DHT22;8371;52.272;9.746;2022-11-15T08:47:45;12.50;82.40
16517;DHT22;8371;52.272;9.746;2022-11-15T08:50:11;12.60;82.30
16517;DHT22;8371;52.272;9.746;2022-11-15T08:52:37;12.80;82.30
16517;DHT22;8371;52.272;9.746;2022-11-15T08:55:03;12.80;82.30
16517;DHT22;8371;52.272;9.746;2022-11-15T08:57:29;12.90;82.30
16517;DHT22;8371;52.272;9.746;2022-11-15T08:59:56;13.00;82.30
16517;DHT22;8371;52.272;9.746;2022-11-15T09:02:21;13.10;82.30
16517;DHT22;8371;52.272;9.746;2022-11-15T09:04:47;13.20;82.20
16517;DHT22;8371;52.272;9.746;2022-11-15T09:07:13;13.30;82.30
16517;DHT22;8371;52.272;9.746;2022-11-15T09:09:39;13.40;82.20
16517;DHT22;8371;52.272;9.746;2022-11-15T09:12:06;13.50;82.20
16517;DHT22;8371;52.272;9.746;2022-11-15T09:14:32;13.60;82.10
16517;DHT22;8371;52.272;9.746;2022-11-15T09:16:57;13.80;82.10
16517;DHT22;8371;52.272;9.746;2022-11-15T09:19:23;13.80;81.90
16517;DHT22;8371;52.272;9.746;2022-11-15T09:21:49;14.00;81.90
16517;DHT22;8371;52.272;9.746;2022-11-15T09:24:15;14.10;81.70
16517;DHT22;8371;52.272;9.746;2022-11-15T09:26:41;14.20;81.60
16517;DHT22;8371;52.272;9.746;2022-11-15T09:29:07;14.30;81.30
16517;DHT22;8371;52.272;9.746;2022-11-15T09:31:32;14.40;81.10
16517;DHT22;8371;52.272;9.746;2022-11-15T09:33:58;14.50;80.90
16517;DHT22;8371;52.272;9.746;2022-11-15T09:36:24;14.60;80.60
16517;DHT22;8371;52.272;9.746;2022-11-15T09:38:50;14.60;80.50
16517;DHT22;8371;52.272;9.746;2022-11-15T09:44:22;14.80;80.50
16517;DHT22;8371;52.272;9.746;2022-11-15T09:49:18;15.00;80.40
16517;DHT22;8371;52.272;9.746;2022-11-15T09:51:47;15.10;80.40
16517;DHT22;8371;52.272;9.746;2022-11-15T09:54:23;15.20;80.40
16517;DHT22;8371;52.272;9.746;2022-11-15T09:56:49;15.30;80.00
16517;DHT22;8371;52.272;9.746;2022-11-15T10:04:49;15.70;79.70
16517;DHT22;8371;52.272;9.746;2022-11-15T10:07:46;15.80;79.40
16517;DHT22;8371;52.272;9.746;2022-11-15T10:12:53;16.10;79.10
16517;DHT22;8371;52.272;9.746;2022-11-15T10:15:20;16.20;78.90
16517;DHT22;8371;52.272;9.746;2022-11-15T10:20:55;16.50;78.50
16517;DHT22;8371;52.272;9.746;2022-11-15T10:23:21;16.70;79.10
16517;DHT22;8371;52.272;9.746;2022-11-15T10:25:53;16.80;78.20
16517;DHT22;8371;52.272;9.746;2022-11-15T10:28:28;17.00;78.00
16517;DHT22;8371;52.272;9.746;2022-11-15T10:31:00;17.10;77.80
16517;DHT22;8371;52.272;9.746;2022-11-15T10:36:16;17.40;77.20
16517;DHT22;8371;52.272;9.746;2022-11-15T10:41:34;17.70;76.70
16517;DHT22;8371;52.272;9.746;2022-11-15T10:49:25;18.00;76.30
16517;DHT22;8371;52.272;9.746;2022-11-15T10:54:36;18.40;76.30
16517;DHT22;8371;52.272;9.746;2022-11-15T10:57:12;18.60;76.10
16517;DHT22;8371;52.272;9.746;2022-11-15T10:59:36;18.70;75.70
16517;DHT22;8371;52.272;9.746;2022-11-15T11:04:50;19.10;75.40
16517;DHT22;8371;52.272;9.746;2022-11-15T11:07:26;19.30;75.00
16517;DHT22;8371;52.272;9.746;2022-11-15T11:09:58;19.50;74.70
16517;DHT22;8371;52.272;9.746;2022-11-15T11:12:33;19.70;74.20
16517;DHT22;8371;52.272;9.746;2022-11-15T11:15:09;19.80;73.80
16517;DHT22;8371;52.272;9.746;2022-11-15T11:17:44;20.00;73.40
16517;DHT22;8371;52.272;9.746;2022-11-15T11:25:46;20.30;72.10
16517;DHT22;8371;52.272;9.746;2022-11-15T11:31:13;20.30;70.90
16517;DHT22;8371;52.272;9.746;2022-11-15T11:34:00;20.40;70.80
16517;DHT22;8371;52.272;9.746;2022-11-15T11:39:26;20.20;70.30
16517;DHT22;8371;52.272;9.746;2022-11-15T11:42:17;20.20;70.10
16517;DHT22;8371;52.272;9.746;2022-11-15T11:47:31;20.00;70.20
16517;DHT22;8371;52.272;9.746;2022-11-15T11:55:34;19.90;70.00
16517;DHT22;8371;52.272;9.746;2022-11-15T12:00:52;19.90;70.80
16517;DHT22;8371;52.272;9.746;2022-11-15T12:09:14;19.80;69.60
16517;DHT22;8371;52.272;9.746;2022-11-15T12:12:13;19.70;69.50
16517;DHT22;8371;52.272;9.746;2022-11-15T12:14:50;19.70;69.40
16517;DHT22;8371;52.272;9.746;2022-11-15T12:17:21;19.60;69.20
16517;DHT22;8371;52.272;9.746;2022-11-15T12:19:46;19.50;69.10
16517;DHT22;8371;52.272;9.746;2022-11-15T12:22:19;19.40;69.10
16517;DHT22;8371;52.272;9.746;2022-11-15T12:24:56;19.30;68.90
16517;DHT22;8371;52.272;9.746;2022-11-15T12:30:00;19.10;68.80
16517;DHT22;8371;52.272;9.746;2022-11-15T12:32:33;19.10;68.90
16517;DHT22;8371;52.272;9.746;2022-11-15T12:35:00;19.00;68.80
16517;DHT22;8371;52.272;9.746;2022-11-15T12:40:22;18.80;69.50
16517;DHT22;8371;52.272;9.746;2022-11-15T12:43:00;18.70;68.60
16517;DHT22;8371;52.272;9.746;2022-11-15T12:45:33;18.60;68.60
16517;DHT22;8371;52.272;9.746;2022-11-15T12:51:03;18.40;68.70
16517;DHT22;8371;52.272;9.746;2022-11-15T12:53:31;18.30;69.00
16517;DHT22;8371;52.272;9.746;2022-11-15T12:58:59;18.10;69.00
16517;DHT22;8371;52.272;9.746;2022-11-15T13:12:09;17.90;69.60
16517;DHT22;8371;52.272;9.746;2022-11-15T13:14:40;17.90;69.60
16517;DHT22;8371;52.272;9.746;2022-11-15T13:22:44;17.80;69.70
16517;DHT22;8371;52.272;9.746;2022-11-15T13:25:40;17.80;69.80
16517;DHT22;8371;52.272;9.746;2022-11-15T13:28:02;17.80;70.30
16517;DHT22;8371;52.272;9.746;2022-11-15T13:30:30;17.80;69.80
16517;DHT22;8371;52.272;9.746;2022-11-15T13:32:58;17.80;69.60
16517;DHT22;8371;52.272;9.746;2022-11-15T13:35:28;17.80;69.40
16517;DHT22;8371;52.272;9.746;2022-11-15T13:37:55;17.80;69.30
16517;DHT22;8371;52.272;9.746;2022-11-15T13:40:27;17.80;69.30
16517;DHT22;8371;52.272;9.746;2022-11-15T13:42:54;17.80;69.40
16517;DHT22;8371;52.272;9.746;2022-11-15T13:45:20;17.80;69.40
16517;DHT22;8371;52.272;9.746;2022-11-15T13:47:58;17.80;69.40
16517;DHT22;8371;52.272;9.746;2022-11-15T13:50:26;17.80;69.40
16517;DHT22;8371;52.272;9.746;2022-11-15T13:52:52;17.80;69.30
16517;DHT22;8371;52.272;9.746;2022-11-15T13:55:21;17.80;69.20
16517;DHT22;8371;52.272;9.746;2022-11-15T13:57:53;17.80;69.20
16517;DHT22;8371;52.272;9.746;2022-11-15T14:02:55;17.70;69.10
16517;DHT22;8371;52.272;9.746;2022-11-15T14:05:24;17.70;69.10
16517;DHT22;8371;52.272;9.746;2022-11-15T14:07:54;17.70;69.00
16517;DHT22;8371;52.272;9.746;2022-11-15T14:10:35;17.60;68.90
16517;DHT22;8371;52.272;9.746;2022-11-15T14:13:03;17.60;68.90
16517;DHT22;8371;52.272;9.746;2022-11-15T14:15:32;17.60;68.50
16517;DHT22;8371;52.272;9.746;2022-11-15T14:17:58;17.50;68.80
16517;DHT22;8371;52.272;9.746;2022-11-15T14:20:26;17.50;68.70
16517;DHT22;8371;52.272;9.746;2022-11-15T14:22:55;17.40;68.80
16517;DHT22;8371;52.272;9.746;2022-11-15T14:25:23;17.40;68.90
16517;DHT22;8371;52.272;9.746;2022-11-15T14:30:46;17.30;68.90
16517;DHT22;8371;52.272;9.746;2022-11-15T14:36:06;17.20;68.80
16517;DHT22;8371;52.272;9.746;2022-11-15T14:38:32;17.10;68.90
16517;DHT22;8371;52.272;9.746;2022-11-15T14:40:58;17.00;68.80
16517;DHT22;8371;52.272;9.746;2022-11-15T14:43:24;16.90;68.80
16517;DHT22;8371;52.272;9.746;2022-11-15T14:45:49;16.90;69.70
16517;DHT22;8371;52.272;9.746;2022-11-15T14:48:15;16.80;68.90
16517;DHT22;8371;52.272;9.746;2022-11-15T14:50:41;16.70;69.50
16517;DHT22;8371;52.272;9.746;2022-11-15T14:53:10;16.70;69.20
16517;DHT22;8371;52.272;9.746;2022-11-15T14:55:35;16.60;69.30
16517;DHT22;8371;52.272;9.746;2022-11-15T14:58:05;16.60;69.40
16517;DHT22;8371;52.272;9.746;2022-11-15T15:00:35;16.60;69.40
16517;DHT22;8371;52.272;9.746;2022-11-15T15:03:01;16.50;69.50
16517;DHT22;8371;52.272;9.746;2022-11-15T15:08:00;16.50;69.70
16517;DHT22;8371;52.272;9.746;2022-11-15T15:10:30;16.50;69.70
16517;DHT22;8371;52.272;9.746;2022-11-15T15:12:55;16.40;69.60
16517;DHT22;8371;52.272;9.746;2022-11-15T15:15:26;16.40;69.70
16517;DHT22;8371;52.272;9.746;2022-11-15T15:17:53;16.40;69.70
16517;DHT22;8371;52.272;9.746;2022-11-15T15:20:19;16.40;69.70
16517;DHT22;8371;52.272;9.746;2022-11-15T15:22:44;16.30;69.70
16517;DHT22;8371;52.272;9.746;2022-11-15T15:25:31;16.30;69.70
16517;DHT22;8371;52.272;9.746;2022-11-15T15:27:58;16.30;69.80
16517;DHT22;8371;52.272;9.746;2022-11-15T15:30:25;16.30;69.80
16517;DHT22;8371;52.272;9.746;2022-11-15T15:32:52;16.30;69.90
16517;DHT22;8371;52.272;9.746;2022-11-15T15:35:18;16.30;69.90
16517;DHT22;8371;52.272;9.746;2022-11-15T15:37:45;16.20;69.90
16517;DHT22;8371;52.272;9.746;2022-11-15T15:40:15;16.30;70.00
16517;DHT22;8371;52.272;9.746;2022-11-15T15:42:41;16.20;69.90
16517;DHT22;8371;52.272;9.746;2022-11-15T15:45:08;16.20;69.90
16517;DHT22;8371;52.272;9.746;2022-11-15T15:47:34;16.20;69.90
16517;DHT22;8371;52.272;9.746;2022-11-15T15:50:00;16.20;70.00
16517;DHT22;8371;52.272;9.746;2022-11-15T15:52:26;16.20;69.90
16517;DHT22;8371;52.272;9.746;2022-11-15T15:54:51;16.20;69.90
16517;DHT22;8371;52.272;9.746;2022-11-15T15:57:17;16.10;69.80
16517;DHT22;8371;52.272;9.746;2022-11-15T15:59:44;16.10;69.70
16517;DHT22;8371;52.272;9.746;2022-11-15T16:02:12;16.20;69.90
16517;DHT22;8371;52.272;9.746;2022-11-15T16:04:38;16.10;69.70
16517;DHT22;8371;52.272;9.746;2022-11-15T16:07:04;16.00;69.60
16517;DHT22;8371;52.272;9.746;2022-11-15T16:09:30;16.00;69.70
16517;DHT22;8371;52.272;9.746;2022-11-15T16:12:14;16.00;69.70
16517;DHT22;8371;52.272;9.746;2022-11-15T16:14:50;15.90;69.60
16517;DHT22;8371;52.272;9.746;2022-11-15T16:17:20;15.90;69.60
16517;DHT22;8371;52.272;9.746;2022-11-15T16:19:45;15.90;69.70
16517;DHT22;8371;52.272;9.746;2022-11-15T16:22:11;15.80;69.70
16517;DHT22;8371;52.272;9.746;2022-11-15T16:24:37;15.80;69.80
16517;DHT22;8371;52.272;9.746;2022-11-15T16:27:03;15.80;70.00
16517;DHT22;8371;52.272;9.746;2022-11-15T16:29:29;15.80;70.00
16517;DHT22;8371;52.272;9.746;2022-11-15T16:31:55;15.80;70.10
16517;DHT22;8371;52.272;9.746;2022-11-15T16:34:21;15.70;70.00
16517;DHT22;8371;52.272;9.746;2022-11-15T16:36:47;15.70;70.00
16517;DHT22;8371;52.272;9.746;2022-11-15T16:39:13;15.70;70.00
16517;DHT22;8371;52.272;9.746;2022-11-15T16:41:40;15.70;70.10
16517;DHT22;8371;52.272;9.746;2022-11-15T16:44:08;15.70;70.10
16517;DHT22;8371;52.272;9.746;2022-11-15T16:46:41;15.70;70.10
16517;DHT22;8371;52.272;9.746;2022-11-15T16:49:14;15.70;70.10
16517;DHT22;8371;52.272;9.746;2022-11-15T16:51:42;15.70;70.10
16517;DHT22;8371;52.272;9.746;2022-11-15T16:54:10;15.60;70.10
16517;DHT22;8371;52.272;9.746;2022-11-15T16:56:35;15.60;70.20
16517;DHT22;8371;52.272;9.746;2022-11-15T16:59:01;15.60;70.20
16517;DHT22;8371;52.272;9.746;2022-11-15T17:01:29;15.50;70.30
16517;DHT22;8371;52.272;9.746;2022-11-15T17:03:55;15.50;70.40
16517;DHT22;8371;52.272;9.746;2022-11-15T17:06:21;15.40;70.40
16517;DHT22;8371;52.272;9.746;2022-11-15T17:08:48;15.30;70.50
16517;DHT22;8371;52.272;9.746;2022-11-15T17:11:16;15.30;70.70
16517;DHT22;8371;52.272;9.746;2022-11-15T17:13:42;15.20;70.70
16517;DHT22;8371;52.272;9.746;2022-11-15T17:16:11;15.10;70.80
16517;DHT22;8371;52.272;9.746;2022-11-15T17:18:38;15.10;71.00
16517;DHT22;8371;52.272;9.746;2022-11-15T17:21:11;15.00;71.10
16517;DHT22;8371;52.272;9.746;2022-11-15T17:23:36;14.90;71.20
16517;DHT22;8371;52.272;9.746;2022-11-15T17:26:03;14.80;71.30
16517;DHT22;8371;52.272;9.746;2022-11-15T17:28:31;14.80;71.40
16517;DHT22;8371;52.272;9.746;2022-11-15T17:30:57;14.70;71.50
16517;DHT22;8371;52.272;9.746;2022-11-15T17:33:23;14.70;71.60
16517;DHT22;8371;52.272;9.746;2022-11-15T17:35:56;14.60;71.70
16517;DHT22;8371;52.272;9.746;2022-11-15T17:38:22;14.60;71.90
16517;DHT22;8371;52.272;9.746;2022-11-15T17:40:48;14.50;72.00
16517;DHT22;8371;52.272;9.746;2022-11-15T17:43:14;14.50;72.10
16517;DHT22;8371;52.272;9.746;2022-11-15T17:45:41;14.40;72.20
16517;DHT22;8371;52.272;9.746;2022-11-15T17:48:07;14.30;72.40
16517;DHT22;8371;52.272;9.746;2022-11-15T17:50:32;14.30;72.50
16517;DHT22;8371;52.272;9.746;2022-11-15T17:52:59;14.30;72.70
16517;DHT22;8371;52.272;9.746;2022-11-15T17:55:24;14.30;73.60
16517;DHT22;8371;52.272;9.746;2022-11-15T17:57:50;14.30;72.90
16517;DHT22;8371;52.272;9.746;2022-11-15T18:00:17;14.30;72.90